sensor_id;sensor_type;location;lat;lon;timestamp;pressure;altitude;pressure_sealevel;temperature;humidity
35489;BME280;21602;55.670;37.578;2023-03-04T00:01:47;97477.44;;;-0.88;86.70
35489;BME280;21602;55.670;37.578;2023-03-04T00:04:16;97477.81;;;-0.85;86.44
35489;BME280;21602;55.670;37.578;2023-03-04T00:06:42;97470.16;;;-0.86;86.81
35489;BME280;21602;55.670;37.578;2023-03-04T00:09:08;97473.38;;;-0.84;86.70
35489;BME280;21602;55.670;37.578;2023-03-04T00:11:34;97472.78;;;-0.80;86.64
35489;BME280;21602;55.670;37.578;2023-03-04T00:14:00;97469.94;;;-0.78;86.89
35489;BME280;21602;55.670;37.578;2023-03-04T00:16:25;97464.69;;;-0.78;86.80
35489;BME280;21602;55.670;37.578;2023-03-04T00:18:57;97467.50;;;-0.73;86.78
35489;BME280;21602;55.670;37.578;2023-03-04T00:21:23;97454.63;;;-0.74;86.74
35489;BME280;21602;55.670;37.578;2023-03-04T00:23:49;97454.63;;;-0.74;86.69
35489;BME280;21602;55.670;37.578;2023-03-04T00:26:17;97452.78;;;-0.74;86.73
35489;BME280;21602;55.670;37.578;2023-03-04T00:28:43;97446.94;;;-0.76;87.02
35489;BME280;21602;55.670;37.578;2023-03-04T00:31:09;97443.31;;;-0.75;87.00
35489;BME280;21602;55.670;37.578;2023-03-04T00:33:36;97442.31;;;-0.74;86.96
35489;BME280;21602;55.670;37.578;2023-03-04T00:36:02;97436.06;;;-0.73;86.79
35489;BME280;21602;55.670;37.578;2023-03-04T00:38:29;97435.03;;;-0.72;86.86
35489;BME280;21602;55.670;37.578;2023-03-04T00:40:55;97431.81;;;-0.74;87.10
35489;BME280;21602;55.670;37.578;2023-03-04T00:43:20;97437.06;;;-0.74;86.93
35489;BME280;21602;55.670;37.578;2023-03-04T00:45:46;97435.88;;;-0.78;87.14
35489;BME280;21602;55.670;37.578;2023-03-04T00:48:13;97420.16;;;-0.78;87.08
35489;BME280;21602;55.670;37.578;2023-03-04T00:50:41;97418.38;;;-0.84;87.46
35489;BME280;21602;55.670;37.578;2023-03-04T00:53:07;97426.66;;;-0.94;88.13
35489;BME280;21602;55.670;37.578;2023-03-04T00:55:33;97424.28;;;-1.02;88.46
35489;BME280;21602;55.670;37.578;2023-03-04T00:57:59;97431.13;;;-0.94;87.83
35489;BME280;21602;55.670;37.578;2023-03-04T01:00:25;97429.69;;;-0.97;87.91
35489;BME280;21602;55.670;37.578;2023-03-04T01:02:51;97421.44;;;-0.94;88.04
35489;BME280;21602;55.670;37.578;2023-03-04T01:05:17;97423.44;;;-0.96;88.10
35489;BME280;21602;55.670;37.578;2023-03-04T01:07:43;97421.66;;;-1.02;88.52
35489;BME280;21602;55.670;37.578;2023-03-04T01:10:11;97421.69;;;-1.09;88.34
35489;BME280;21602;55.670;37.578;2023-03-04T01:12:38;97428.34;;;-1.13;88.44
35489;BME280;21602;55.670;37.578;2023-03-04T01:15:10;97418.66;;;-1.12;88.55
35489;BME280;21602;55.670;37.578;2023-03-04T01:17:38;97425.72;;;-1.13;88.83
35489;BME280;21602;55.670;37.578;2023-03-04T01:20:06;97420.09;;;-1.16;89.11
35489;BME280;21602;55.670;37.578;2023-03-04T01:22:32;97416.28;;;-1.14;88.99
35489;BME280;21602;55.670;37.578;2023-03-04T01:24:58;97416.28;;;-1.14;88.99
35489;BME280;21602;55.670;37.578;2023-03-04T01:27:24;97417.06;;;-1.20;89.16
35489;BME280;21602;55.670;37.578;2023-03-04T01:29:50;97417.69;;;-1.24;89.00
35489;BME280;21602;55.670;37.578;2023-03-04T01:32:17;97413.25;;;-1.24;89.32
35489;BME280;21602;55.670;37.578;2023-03-04T01:34:44;97414.47;;;-1.26;89.28
35489;BME280;21602;55.670;37.578;2023-03-04T01:37:10;97407.25;;;-1.31;89.64
35489;BME280;21602;55.670;37.578;2023-03-04T01:39:38;97410.25;;;-1.34;89.64
35489;BME280;21602;55.670;37.578;2023-03-04T01:42:04;97404.25;;;-1.41;89.93
35489;BME280;21602;55.670;37.578;2023-03-04T01:44:30;97409.88;;;-1.44;89.63
35489;BME280;21602;55.670;37.578;2023-03-04T01:46:56;97409.91;;;-1.51;90.61
35489;BME280;21602;55.670;37.578;2023-03-04T01:49:23;97404.84;;;-1.52;90.25
35489;BME280;21602;55.670;37.578;2023-03-04T01:51:53;97408.50;;;-1.60;91.40
35489;BME280;21602;55.670;37.578;2023-03-04T01:54:20;97399.44;;;-1.64;90.91
35489;BME280;21602;55.670;37.578;2023-03-04T01:56:47;97399.84;;;-1.61;90.96
35489;BME280;21602;55.670;37.578;2023-03-04T01:59:21;97389.75;;;-1.57;90.87
35489;BME280;21602;55.670;37.578;2023-03-04T02:02:08;97378.50;;;-1.51;91.22
35489;BME280;21602;55.670;37.578;2023-03-04T02:04:35;97378.50;;;-1.51;91.04
35489;BME280;21602;55.670;37.578;2023-03-04T02:07:01;97376.88;;;-1.52;90.91
35489;BME280;21602;55.670;37.578;2023-03-04T02:09:29;97372.88;;;-1.55;91.40
35489;BME280;21602;55.670;37.578;2023-03-04T02:11:56;97370.84;;;-1.52;91.46
35489;BME280;21602;55.670;37.578;2023-03-04T02:14:23;97364.81;;;-1.53;91.66
35489;BME280;21602;55.670;37.578;2023-03-04T02:16:50;97362.00;;;-1.51;91.54
35489;BME280;21602;55.670;37.578;2023-03-04T02:22:01;97357.75;;;-1.46;91.80
35489;BME280;21602;55.670;37.578;2023-03-04T02:24:33;97351.91;;;-1.48;91.50
35489;BME280;21602;55.670;37.578;2023-03-04T02:27:01;97338.63;;;-1.53;91.74
35489;BME280;21602;55.670;37.578;2023-03-04T02:29:27;97343.50;;;-1.57;91.66
35489;BME280;21602;55.670;37.578;2023-03-04T02:31:55;97339.47;;;-1.59;92.02
35489;BME280;21602;55.670;37.578;2023-03-04T02:34:24;97330.19;;;-1.55;92.04
35489;BME280;21602;55.670;37.578;2023-03-04T02:36:53;97331.41;;;-1.51;92.04
35489;BME280;21602;55.670;37.578;2023-03-04T02:41:50;97322.94;;;-1.46;92.09
35489;BME280;21602;55.670;37.578;2023-03-04T02:44:25;97313.66;;;-1.49;92.03
35489;BME280;21602;55.670;37.578;2023-03-04T02:46:52;97316.69;;;-1.45;92.14
35489;BME280;21602;55.670;37.578;2023-03-04T02:49:19;97308.22;;;-1.41;91.95
35489;BME280;21602;55.670;37.578;2023-03-04T02:51:48;97307.59;;;-1.43;91.96
35489;BME280;21602;55.670;37.578;2023-03-04T02:54:16;97312.03;;;-1.43;91.59
35489;BME280;21602;55.670;37.578;2023-03-04T02:56:53;97311.66;;;-1.47;91.98
35489;BME280;21602;55.670;37.578;2023-03-04T02:59:21;97304.22;;;-1.50;92.17
35489;BME280;21602;55.670;37.578;2023-03-04T03:01:48;97304.78;;;-1.48;92.38
35489;BME280;21602;55.670;37.578;2023-03-04T03:04:14;97297.97;;;-1.42;92.19
35489;BME280;21602;55.670;37.578;2023-03-04T03:06:42;97302.75;;;-1.39;92.02
35489;BME280;21602;55.670;37.578;2023-03-04T03:09:08;97302.00;;;-1.46;91.86
35489;BME280;21602;55.670;37.578;2023-03-04T03:11:34;97287.09;;;-1.52;91.95
35489;BME280;21602;55.670;37.578;2023-03-04T03:14:00;97286.53;;;-1.61;92.38
35489;BME280;21602;55.670;37.578;2023-03-04T03:16:26;97299.44;;;-1.73;92.33
35489;BME280;21602;55.670;37.578;2023-03-04T03:18:52;97292.44;;;-1.79;92.62
35489;BME280;21602;55.670;37.578;2023-03-04T03:21:19;97289.63;;;-1.84;93.07
35489;BME280;21602;55.670;37.578;2023-03-04T03:23:45;97290.81;;;-1.87;93.34
35489;BME280;21602;55.670;37.578;2023-03-04T03:26:11;97280.56;;;-1.88;93.51
35489;BME280;21602;55.670;37.578;2023-03-04T03:28:37;97283.41;;;-1.90;93.67
35489;BME280;21602;55.670;37.578;2023-03-04T03:31:03;97276.16;;;-1.94;94.07
35489;BME280;21602;55.670;37.578;2023-03-04T03:33:29;97272.97;;;-2.03;94.11
35489;BME280;21602;55.670;37.578;2023-03-04T03:35:55;97274.38;;;-2.14;95.09
35489;BME280;21602;55.670;37.578;2023-03-04T03:38:22;97278.00;;;-2.15;94.62
35489;BME280;21602;55.670;37.578;2023-03-04T03:40:48;97264.13;;;-2.22;95.14
35489;BME280;21602;55.670;37.578;2023-03-04T03:43:14;97266.56;;;-2.27;95.44
35489;BME280;21602;55.670;37.578;2023-03-04T03:45:40;97273.59;;;-2.27;96.27
35489;BME280;21602;55.670;37.578;2023-03-04T03:48:05;97267.16;;;-2.25;96.02
35489;BME280;21602;55.670;37.578;2023-03-04T03:50:31;97267.97;;;-2.18;95.96
35489;BME280;21602;55.670;37.578;2023-03-04T03:52:58;97278.00;;;-2.08;95.56
35489;BME280;21602;55.670;37.578;2023-03-04T03:55:24;97272.16;;;-2.10;96.10
35489;BME280;21602;55.670;37.578;2023-03-04T03:57:50;97261.72;;;-2.03;95.96
35489;BME280;21602;55.670;37.578;2023-03-04T04:00:16;97251.25;;;-2.03;95.61
35489;BME280;21602;55.670;37.578;2023-03-04T04:02:42;97244.59;;;-2.06;96.05
35489;BME280;21602;55.670;37.578;2023-03-04T04:05:08;97234.50;;;-1.96;95.54
35489;BME280;21602;55.670;37.578;2023-03-04T04:07:36;97233.72;;;-1.90;95.43
35489;BME280;21602;55.670;37.578;2023-03-04T04:10:03;97228.00;;;-1.73;95.86
35489;BME280;21602;55.670;37.578;2023-03-04T04:12:29;97216.28;;;-1.58;95.67
35489;BME280;21602;55.670;37.578;2023-03-04T04:14:55;97219.84;;;-1.45;94.96
35489;BME280;21602;55.670;37.578;2023-03-04T04:17:20;97218.63;;;-1.43;94.39
35489;BME280;21602;55.670;37.578;2023-03-04T04:19:46;97209.59;;;-1.47;94.17
35489;BME280;21602;55.670;37.578;2023-03-04T04:22:14;97209.59;;;-1.47;94.20
35489;BME280;21602;55.670;37.578;2023-03-04T04:24:40;97200.91;;;-1.47;94.22
35489;BME280;21602;55.670;37.578;2023-03-04T04:27:06;97199.50;;;-1.43;94.02
35489;BME280;21602;55.670;37.578;2023-03-04T04:29:32;97203.94;;;-1.44;93.88
35489;BME280;21602;55.670;37.578;2023-03-04T04:31:58;97206.78;;;-1.52;94.02
35489;BME280;21602;55.670;37.578;2023-03-04T04:34:24;97209.41;;;-1.52;93.94
35489;BME280;21602;55.670;37.578;2023-03-04T04:36:51;97209.63;;;-1.53;94.08
35489;BME280;21602;55.670;37.578;2023-03-04T04:39:17;97213.84;;;-1.52;94.20
35489;BME280;21602;55.670;37.578;2023-03-04T04:41:44;97203.97;;;-1.50;94.12
35489;BME280;21602;55.670;37.578;2023-03-04T04:44:11;97203.19;;;-1.58;94.45
35489;BME280;21602;55.670;37.578;2023-03-04T04:46:38;97203.19;;;-1.58;94.06
35489;BME280;21602;55.670;37.578;2023-03-04T04:49:04;97201.19;;;-1.62;94.62
35489;BME280;21602;55.670;37.578;2023-03-04T04:51:35;97204.38;;;-1.53;94.39
35489;BME280;21602;55.670;37.578;2023-03-04T04:54:02;97206.16;;;-1.47;94.42
35489;BME280;21602;55.670;37.578;2023-03-04T04:56:31;97202.91;;;-1.43;94.25
35489;BME280;21602;55.670;37.578;2023-03-04T04:59:00;97196.84;;;-1.37;93.93
35489;BME280;21602;55.670;37.578;2023-03-04T05:01:27;97201.69;;;-1.40;93.88
35489;BME280;21602;55.670;37.578;2023-03-04T05:03:53;97204.50;;;-1.35;93.80
35489;BME280;21602;55.670;37.578;2023-03-04T05:06:21;97199.03;;;-1.27;93.79
35489;BME280;21602;55.670;37.578;2023-03-04T05:08:49;97191.13;;;-1.20;93.22
35489;BME280;21602;55.670;37.578;2023-03-04T05:11:15;97189.09;;;-1.18;93.17
35489;BME280;21602;55.670;37.578;2023-03-04T05:13:42;97187.63;;;-1.08;92.79
35489;BME280;21602;55.670;37.578;2023-03-04T05:16:07;97178.91;;;-1.01;92.50
35489;BME280;21602;55.670;37.578;2023-03-04T05:18:34;97185.31;;;-0.97;92.30
35489;BME280;21602;55.670;37.578;2023-03-04T05:21:01;97184.69;;;-0.93;92.18
35489;BME280;21602;55.670;37.578;2023-03-04T05:23:30;97189.06;;;-0.87;92.03
35489;BME280;21602;55.670;37.578;2023-03-04T05:25:56;97186.75;;;-0.77;91.89
35489;BME280;21602;55.670;37.578;2023-03-04T05:28:22;97181.63;;;-0.65;91.45
35489;BME280;21602;55.670;37.578;2023-03-04T05:30:49;97181.94;;;-0.55;91.14
35489;BME280;21602;55.670;37.578;2023-03-04T05:33:16;97179.59;;;-0.38;90.74
35489;BME280;21602;55.670;37.578;2023-03-04T05:35:43;97184.34;;;-0.28;89.98
35489;BME280;21602;55.670;37.578;2023-03-04T05:38:12;97176.81;;;-0.24;89.38
35489;BME280;21602;55.670;37.578;2023-03-04T05:40:39;97173.69;;;-0.15;89.31
35489;BME280;21602;55.670;37.578;2023-03-04T05:43:05;97169.97;;;-0.07;89.13
35489;BME280;21602;55.670;37.578;2023-03-04T05:45:31;97171.28;;;0.02;88.51
35489;BME280;21602;55.670;37.578;2023-03-04T05:47:58;97171.00;;;0.10;87.92
35489;BME280;21602;55.670;37.578;2023-03-04T05:50:25;97170.13;;;0.16;87.71
35489;BME280;21602;55.670;37.578;2023-03-04T05:52:52;97166.25;;;0.19;87.56
35489;BME280;21602;55.670;37.578;2023-03-04T05:55:18;97157.50;;;0.25;87.78
35489;BME280;21602;55.670;37.578;2023-03-04T05:57:45;97156.38;;;0.33;87.31
35489;BME280;21602;55.670;37.578;2023-03-04T06:00:13;97157.91;;;0.40;87.11
35489;BME280;21602;55.670;37.578;2023-03-04T06:02:40;97158.41;;;0.49;86.87
35489;BME280;21602;55.670;37.578;2023-03-04T06:05:07;97147.00;;;0.55;86.73
35489;BME280;21602;55.670;37.578;2023-03-04T06:07:33;97150.47;;;0.67;86.44
35489;BME280;21602;55.670;37.578;2023-03-04T06:09:59;97144.88;;;0.75;86.29
35489;BME280;21602;55.670;37.578;2023-03-04T06:12:25;97147.88;;;0.79;86.14
35489;BME280;21602;55.670;37.578;2023-03-04T06:14:53;97148.19;;;0.71;85.45
35489;BME280;21602;55.670;37.578;2023-03-04T06:17:20;97148.53;;;0.63;85.50
35489;BME280;21602;55.670;37.578;2023-03-04T06:19:45;97147.72;;;0.62;85.56
35489;BME280;21602;55.670;37.578;2023-03-04T06:22:11;97145.22;;;0.67;85.68
35489;BME280;21602;55.670;37.578;2023-03-04T06:24:38;97143.53;;;0.73;85.55
35489;BME280;21602;55.670;37.578;2023-03-04T06:27:04;97144.69;;;0.77;85.22
35489;BME280;21602;55.670;37.578;2023-03-04T06:29:31;97131.75;;;0.75;84.69
35489;BME280;21602;55.670;37.578;2023-03-04T06:31:56;97140.59;;;0.81;84.30
35489;BME280;21602;55.670;37.578;2023-03-04T06:34:22;97140.91;;;0.73;84.14
35489;BME280;21602;55.670;37.578;2023-03-04T06:36:48;97135.06;;;0.71;84.37
35489;BME280;21602;55.670;37.578;2023-03-04T06:39:14;97123.06;;;0.63;84.14
35489;BME280;21602;55.670;37.578;2023-03-04T06:41:40;97121.72;;;0.72;84.53
35489;BME280;21602;55.670;37.578;2023-03-04T06:44:06;97120.50;;;0.87;84.50
35489;BME280;21602;55.670;37.578;2023-03-04T06:46:33;97111.16;;;1.02;83.87
35489;BME280;21602;55.670;37.578;2023-03-04T06:48:59;97112.53;;;1.17;83.38
35489;BME280;21602;55.670;37.578;2023-03-04T06:51:25;97111.16;;;1.26;83.10
35489;BME280;21602;55.670;37.578;2023-03-04T06:53:51;97102.34;;;1.32;82.90
35489;BME280;21602;55.670;37.578;2023-03-04T06:56:17;97111.38;;;1.36;82.60
35489;BME280;21602;55.670;37.578;2023-03-04T06:58:46;97110.13;;;1.27;82.10
35489;BME280;21602;55.670;37.578;2023-03-04T07:01:20;97104.78;;;1.34;82.34
35489;BME280;21602;55.670;37.578;2023-03-04T07:03:47;97100.88;;;1.36;82.39
35489;BME280;21602;55.670;37.578;2023-03-04T07:06:15;97096.28;;;1.32;81.73
35489;BME280;21602;55.670;37.578;2023-03-04T07:08:42;97092.44;;;1.34;81.84
35489;BME280;21602;55.670;37.578;2023-03-04T07:11:08;97088.75;;;1.35;82.00
35489;BME280;21602;55.670;37.578;2023-03-04T07:13:35;97080.53;;;1.43;81.75
35489;BME280;21602;55.670;37.578;2023-03-04T07:16:07;97082.56;;;1.41;81.35
35489;BME280;21602;55.670;37.578;2023-03-04T07:18:35;97077.00;;;1.38;81.49
35489;BME280;21602;55.670;37.578;2023-03-04T07:21:01;97071.75;;;1.38;81.86
35489;BME280;21602;55.670;37.578;2023-03-04T07:23:27;97072.06;;;1.41;82.16
35489;BME280;21602;55.670;37.578;2023-03-04T07:25:53;97066.94;;;1.35;82.35
35489;BME280;21602;55.670;37.578;2023-03-04T07:28:19;97058.94;;;1.30;82.89
35489;BME280;21602;55.670;37.578;2023-03-04T07:30:45;97054.81;;;1.34;83.15
35489;BME280;21602;55.670;37.578;2023-03-04T07:33:12;97056.28;;;1.41;83.02
35489;BME280;21602;55.670;37.578;2023-03-04T07:35:38;97052.84;;;1.52;82.76
35489;BME280;21602;55.670;37.578;2023-03-04T07:38:05;97047.53;;;1.76;82.76
35489;BME280;21602;55.670;37.578;2023-03-04T07:40:33;97042.00;;;1.89;82.00
35489;BME280;21602;55.670;37.578;2023-03-04T07:42:59;97050.59;;;1.85;81.12
35489;BME280;21602;55.670;37.578;2023-03-04T07:45:26;97041.78;;;1.79;81.32
35489;BME280;21602;55.670;37.578;2023-03-04T07:47:52;97047.66;;;1.69;81.17
35489;BME280;21602;55.670;37.578;2023-03-04T07:50:19;97033.28;;;1.60;81.62
35489;BME280;21602;55.670;37.578;2023-03-04T07:52:47;97029.75;;;1.54;81.48
35489;BME280;21602;55.670;37.578;2023-03-04T07:55:14;97031.53;;;1.66;81.90
35489;BME280;21602;55.670;37.578;2023-03-04T07:57:42;97031.19;;;1.74;81.43
35489;BME280;21602;55.670;37.578;2023-03-04T08:00:11;97033.00;;;1.73;81.46
35489;BME280;21602;55.670;37.578;2023-03-04T08:02:41;97033.91;;;1.79;80.96
35489;BME280;21602;55.670;37.578;2023-03-04T08:05:07;97034.00;;;1.84;81.28
35489;BME280;21602;55.670;37.578;2023-03-04T08:07:33;97030.53;;;1.95;81.15
35489;BME280;21602;55.670;37.578;2023-03-04T08:10:00;97016.63;;;1.83;80.17
35489;BME280;21602;55.670;37.578;2023-03-04T08:12:26;97020.56;;;1.69;80.52
35489;BME280;21602;55.670;37.578;2023-03-04T08:14:52;97022.63;;;1.67;80.56
35489;BME280;21602;55.670;37.578;2023-03-04T08:17:18;97018.59;;;1.76;80.76
35489;BME280;21602;55.670;37.578;2023-03-04T08:19:45;97016.63;;;1.83;80.37
35489;BME280;21602;55.670;37.578;2023-03-04T08:22:11;97008.38;;;1.91;80.25
35489;BME280;21602;55.670;37.578;2023-03-04T08:24:37;97007.75;;;2.01;80.20
35489;BME280;21602;55.670;37.578;2023-03-04T08:27:03;97004.75;;;2.09;79.83
35489;BME280;21602;55.670;37.578;2023-03-04T08:29:29;97003.50;;;2.28;79.76
35489;BME280;21602;55.670;37.578;2023-03-04T08:31:55;96996.66;;;2.44;79.44
35489;BME280;21602;55.670;37.578;2023-03-04T08:34:23;96997.94;;;2.59;79.37
35489;BME280;21602;55.670;37.578;2023-03-04T08:36:49;96995.69;;;2.67;78.88
35489;BME280;21602;55.670;37.578;2023-03-04T08:39:16;96998.56;;;2.66;78.41
35489;BME280;21602;55.670;37.578;2023-03-04T08:41:43;96992.00;;;2.51;78.09
35489;BME280;21602;55.670;37.578;2023-03-04T08:44:10;96994.25;;;2.43;78.45
35489;BME280;21602;55.670;37.578;2023-03-04T08:46:39;96983.06;;;2.36;78.49
35489;BME280;21602;55.670;37.578;2023-03-04T08:49:06;96989.34;;;2.18;77.84
35489;BME280;21602;55.670;37.578;2023-03-04T08:51:32;96975.56;;;2.11;78.22
35489;BME280;21602;55.670;37.578;2023-03-04T08:54:03;96976.19;;;2.18;78.22
35489;BME280;21602;55.670;37.578;2023-03-04T08:56:29;96980.56;;;2.12;77.34
35489;BME280;21602;55.670;37.578;2023-03-04T08:58:55;96972.53;;;2.19;78.21
35489;BME280;21602;55.670;37.578;2023-03-04T09:01:21;96963.94;;;2.23;78.07
35489;BME280;21602;55.670;37.578;2023-03-04T09:03:47;96964.88;;;2.34;78.16
35489;BME280;21602;55.670;37.578;2023-03-04T09:06:15;96960.19;;;2.53;78.30
35489;BME280;21602;55.670;37.578;2023-03-04T09:08:42;96953.22;;;2.80;77.88
35489;BME280;21602;55.670;37.578;2023-03-04T09:11:09;96948.69;;;2.98;77.56
35489;BME280;21602;55.670;37.578;2023-03-04T09:13:36;96945.16;;;3.09;77.34
35489;BME280;21602;55.670;37.578;2023-03-04T09:16:08;96945.78;;;3.16;75.90
35489;BME280;21602;55.670;37.578;2023-03-04T09:18:38;96938.72;;;3.22;76.41
35489;BME280;21602;55.670;37.578;2023-03-04T09:21:06;96934.44;;;3.16;75.87
35489;BME280;21602;55.670;37.578;2023-03-04T09:23:39;96930.69;;;3.12;75.42
35489;BME280;21602;55.670;37.578;2023-03-04T09:26:24;96921.41;;;2.87;74.92
35489;BME280;21602;55.670;37.578;2023-03-04T09:28:52;96919.13;;;2.74;75.39
35489;BME280;21602;55.670;37.578;2023-03-04T09:31:18;96914.34;;;2.71;75.88
35489;BME280;21602;55.670;37.578;2023-03-04T09:33:44;96902.38;;;2.63;75.44
35489;BME280;21602;55.670;37.578;2023-03-04T09:36:11;96902.25;;;2.53;75.13
35489;BME280;21602;55.670;37.578;2023-03-04T09:38:38;96894.28;;;2.48;75.05
35489;BME280;21602;55.670;37.578;2023-03-04T09:41:07;96895.28;;;2.47;75.35
35489;BME280;21602;55.670;37.578;2023-03-04T09:43:33;96882.50;;;2.55;74.92
35489;BME280;21602;55.670;37.578;2023-03-04T09:46:07;96881.13;;;2.70;74.11
35489;BME280;21602;55.670;37.578;2023-03-04T09:48:46;96874.16;;;3.02;73.81
35489;BME280;21602;55.670;37.578;2023-03-04T09:54:08;96860.81;;;3.36;72.82
35489;BME280;21602;55.670;37.578;2023-03-04T09:56:37;96858.38;;;3.51;72.82
35489;BME280;21602;55.670;37.578;2023-03-04T10:01:36;96847.00;;;3.78;70.73
35489;BME280;21602;55.670;37.578;2023-03-04T10:04:13;96842.59;;;3.89;71.35
35489;BME280;21602;55.670;37.578;2023-03-04T10:06:41;96830.84;;;3.74;70.23
35489;BME280;21602;55.670;37.578;2023-03-04T10:09:42;96828.44;;;3.68;69.67
35489;BME280;21602;55.670;37.578;2023-03-04T10:12:13;96824.44;;;3.65;69.90
35489;BME280;21602;55.670;37.578;2023-03-04T10:14:48;96823.31;;;3.56;69.18
35489;BME280;21602;55.670;37.578;2023-03-04T10:17:26;96816.59;;;3.43;69.89
35489;BME280;21602;55.670;37.578;2023-03-04T10:20:27;96813.09;;;3.32;69.92
35489;BME280;21602;55.670;37.578;2023-03-04T10:23:10;96811.19;;;3.28;69.67
35489;BME280;21602;55.670;37.578;2023-03-04T10:25:43;96809.47;;;3.17;69.39
35489;BME280;21602;55.670;37.578;2023-03-04T10:28:20;96811.69;;;3.25;69.51
35489;BME280;21602;55.670;37.578;2023-03-04T10:33:41;96789.63;;;3.36;70.48
35489;BME280;21602;55.670;37.578;2023-03-04T10:39:00;96784.66;;;3.40;70.49
35489;BME280;21602;55.670;37.578;2023-03-04T10:41:28;96779.03;;;3.31;71.54
35489;BME280;21602;55.670;37.578;2023-03-04T10:46:24;96779.63;;;3.38;72.10
35489;BME280;21602;55.670;37.578;2023-03-04T10:48:53;96775.88;;;3.29;72.68
35489;BME280;21602;55.670;37.578;2023-03-04T10:51:22;96767.13;;;3.23;73.00
35489;BME280;21602;55.670;37.578;2023-03-04T10:54:08;96764.16;;;3.20;73.76
35489;BME280;21602;55.670;37.578;2023-03-04T10:56:36;96767.19;;;3.06;74.47
35489;BME280;21602;55.670;37.578;2023-03-04T11:01:53;96758.72;;;2.99;75.36
35489;BME280;21602;55.670;37.578;2023-03-04T11:04:26;96755.44;;;3.14;75.68
35489;BME280;21602;55.670;37.578;2023-03-04T11:06:59;96749.50;;;3.29;75.43
35489;BME280;21602;55.670;37.578;2023-03-04T11:09:29;96738.53;;;3.42;75.34
35489;BME280;21602;55.670;37.578;2023-03-04T11:12:00;96733.34;;;3.52;75.01
35489;BME280;21602;55.670;37.578;2023-03-04T11:14:39;96733.13;;;3.59;74.79
35489;BME280;21602;55.670;37.578;2023-03-04T11:17:23;96724.44;;;3.64;74.85
35489;BME280;21602;55.670;37.578;2023-03-04T11:19:54;96721.47;;;3.55;74.44
35489;BME280;21602;55.670;37.578;2023-03-04T11:22:23;96714.19;;;3.35;74.49
35489;BME280;21602;55.670;37.578;2023-03-04T11:24:59;96711.00;;;3.28;74.88
35489;BME280;21602;55.670;37.578;2023-03-04T11:27:57;96708.81;;;3.20;75.58
35489;BME280;21602;55.670;37.578;2023-03-04T11:30:33;96709.25;;;3.12;76.40
35489;BME280;21602;55.670;37.578;2023-03-04T11:33:11;96701.00;;;3.03;76.96
35489;BME280;21602;55.670;37.578;2023-03-04T11:35:53;96710.13;;;2.90;77.65
35489;BME280;21602;55.670;37.578;2023-03-04T11:38:32;96702.34;;;2.78;78.05
35489;BME280;21602;55.670;37.578;2023-03-04T11:41:08;96694.41;;;2.73;78.34
35489;BME280;21602;55.670;37.578;2023-03-04T11:43:38;96690.88;;;2.63;79.50
35489;BME280;21602;55.670;37.578;2023-03-04T11:57:07;96674.47;;;2.12;82.37
35489;BME280;21602;55.670;37.578;2023-03-04T12:00:00;96667.38;;;2.12;82.83
35489;BME280;21602;55.670;37.578;2023-03-04T12:03:39;96660.84;;;2.15;83.67
35489;BME280;21602;55.670;37.578;2023-03-04T12:19:37;96629.00;;;1.94;84.04
35489;BME280;21602;55.670;37.578;2023-03-04T12:22:21;96629.00;;;1.94;85.11
35489;BME280;21602;55.670;37.578;2023-03-04T12:27:42;96623.56;;;2.01;85.20
35489;BME280;21602;55.670;37.578;2023-03-04T12:30:33;96622.22;;;1.98;85.27
35489;BME280;21602;55.670;37.578;2023-03-04T12:33:16;96609.19;;;1.87;85.11
35489;BME280;21602;55.670;37.578;2023-03-04T12:38:49;96607.41;;;1.92;86.33
35489;BME280;21602;55.670;37.578;2023-03-04T12:41:28;96600.50;;;1.86;86.11
35489;BME280;21602;55.670;37.578;2023-03-04T12:52:58;96584.53;;;1.93;86.58
35489;BME280;21602;55.670;37.578;2023-03-04T12:55:36;96578.38;;;1.82;86.21
35489;BME280;21602;55.670;37.578;2023-03-04T12:58:03;96583.78;;;1.75;86.54
35489;BME280;21602;55.670;37.578;2023-03-04T13:03:36;96567.00;;;1.76;87.24
35489;BME280;21602;55.670;37.578;2023-03-04T13:09:27;96559.78;;;1.67;88.06
35489;BME280;21602;55.670;37.578;2023-03-04T13:12:18;96558.97;;;1.66;87.92
35489;BME280;21602;55.670;37.578;2023-03-04T13:17:48;96545.94;;;1.76;88.34
35489;BME280;21602;55.670;37.578;2023-03-04T13:26:15;96531.66;;;1.94;87.90
35489;BME280;21602;55.670;37.578;2023-03-04T13:28:42;96530.75;;;1.84;87.54
35489;BME280;21602;55.670;37.578;2023-03-04T13:33:55;96514.84;;;1.95;87.91
35489;BME280;21602;55.670;37.578;2023-03-04T13:36:34;96519.59;;;1.98;87.63
35489;BME280;21602;55.670;37.578;2023-03-04T13:41:54;96511.81;;;1.82;87.88
35489;BME280;21602;55.670;37.578;2023-03-04T13:47:17;96505.16;;;1.74;88.60
35489;BME280;21602;55.670;37.578;2023-03-04T13:49:45;96496.72;;;1.72;88.68
35489;BME280;21602;55.670;37.578;2023-03-04T13:58:25;96475.13;;;1.70;88.94
35489;BME280;21602;55.670;37.578;2023-03-04T14:00:53;96481.41;;;1.69;88.68
35489;BME280;21602;55.670;37.578;2023-03-04T14:03:21;96475.50;;;1.57;88.90
35489;BME280;21602;55.670;37.578;2023-03-04T14:05:48;96470.75;;;1.53;89.40
35489;BME280;21602;55.670;37.578;2023-03-04T14:08:33;96464.91;;;1.51;89.24
35489;BME280;21602;55.670;37.578;2023-03-04T14:10:58;96466.69;;;1.46;89.64
35489;BME280;21602;55.670;37.578;2023-03-04T14:13:24;96455.66;;;1.44;89.75
35489;BME280;21602;55.670;37.578;2023-03-04T14:15:55;96456.75;;;1.48;90.49
35489;BME280;21602;55.670;37.578;2023-03-04T14:18:22;96449.72;;;1.53;89.77
35489;BME280;21602;55.670;37.578;2023-03-04T14:20:50;96444.13;;;1.50;89.90
35489;BME280;21602;55.670;37.578;2023-03-04T14:23:34;96446.09;;;1.60;90.36
35489;BME280;21602;55.670;37.578;2023-03-04T14:26:10;96436.41;;;1.65;90.37
35489;BME280;21602;55.670;37.578;2023-03-04T14:28:50;96433.03;;;1.70;90.32
35489;BME280;21602;55.670;37.578;2023-03-04T14:31:22;96433.34;;;1.73;90.35
35489;BME280;21602;55.670;37.578;2023-03-04T14:33:52;96431.50;;;1.74;90.04
35489;BME280;21602;55.670;37.578;2023-03-04T14:36:24;96431.75;;;1.72;90.40